sensor_id;sensor_type;location;lat;lon;timestamp;pressure;altitude;pressure_sealevel;temperature;humidity
15568;BME280;7885;42.596;23.044;2024-02-21T00:00:51;93518.28;;;7.09;91.55
15568;BME280;7885;42.596;23.044;2024-02-21T00:03:18;93533.16;;;7.19;92.08
15568;BME280;7885;42.596;23.044;2024-02-21T00:05:46;93489.72;;;6.93;91.98
15568;BME280;7885;42.596;23.044;2024-02-21T00:08:13;93528.53;;;7.20;91.76
15568;BME280;7885;42.596;23.044;2024-02-21T00:10:40;93539.25;;;7.35;91.94
15568;BME280;7885;42.596;23.044;2024-02-21T00:13:06;93486.44;;;7.03;91.23
15568;BME280;7885;42.596;23.044;2024-02-21T00:15:33;93539.50;;;7.49;90.94
15568;BME280;7885;42.596;23.044;2024-02-21T00:18:00;93539.22;;;7.54;90.55
15568;BME280;7885;42.596;23.044;2024-02-21T00:20:27;93540.00;;;7.55;90.72
15568;BME280;7885;42.596;23.044;2024-02-21T00:22:55;93540.91;;;7.62;90.54
15568;BME280;7885;42.596;23.044;2024-02-21T00:25:21;93537.59;;;7.73;89.74
15568;BME280;7885;42.596;23.044;2024-02-21T00:27:48;93541.47;;;7.72;89.59
15568;BME280;7885;42.596;23.044;2024-02-21T00:30:15;93549.16;;;7.70;89.99
15568;BME280;7885;42.596;23.044;2024-02-21T00:32:42;93539.88;;;7.71;89.63
15568;BME280;7885;42.596;23.044;2024-02-21T00:35:09;93443.44;;;6.98;90.43
15568;BME280;7885;42.596;23.044;2024-02-21T00:37:35;93539.28;;;7.58;90.56
15568;BME280;7885;42.596;23.044;2024-02-21T00:40:05;93457.16;;;7.08;90.09
15568;BME280;7885;42.596;23.044;2024-02-21T00:42:32;93543.97;;;7.61;90.08
15568;BME280;7885;42.596;23.044;2024-02-21T00:44:58;93535.91;;;7.65;90.19
15568;BME280;7885;42.596;23.044;2024-02-21T00:47:25;93521.00;;;7.51;90.10
15568;BME280;7885;42.596;23.044;2024-02-21T00:49:52;93525.03;;;7.61;90.26
15568;BME280;7885;42.596;23.044;2024-02-21T00:52:19;93526.41;;;7.51;90.35
15568;BME280;7885;42.596;23.044;2024-02-21T01:01:30;93517.19;;;7.14;91.85
15568;BME280;7885;42.596;23.044;2024-02-21T01:03:57;93522.59;;;7.14;92.01
15568;BME280;7885;42.596;23.044;2024-02-21T01:06:23;93518.63;;;7.08;92.20
15568;BME280;7885;42.596;23.044;2024-02-21T01:08:50;93461.09;;;6.73;91.83
15568;BME280;7885;42.596;23.044;2024-02-21T01:11:17;93402.78;;;6.33;91.16
15568;BME280;7885;42.596;23.044;2024-02-21T01:13:44;93421.41;;;6.38;91.73
15568;BME280;7885;42.596;23.044;2024-02-21T01:16:11;93515.16;;;6.88;93.08
15568;BME280;7885;42.596;23.044;2024-02-21T01:18:39;93515.06;;;6.85;92.90
15568;BME280;7885;42.596;23.044;2024-02-21T01:24:28;93508.22;;;6.91;93.09
15568;BME280;7885;42.596;23.044;2024-02-21T01:26:55;93509.88;;;6.95;92.94
15568;BME280;7885;42.596;23.044;2024-02-21T01:29:21;93478.25;;;6.80;92.81
15568;BME280;7885;42.596;23.044;2024-02-21T01:31:48;93470.06;;;6.77;93.58
15568;BME280;7885;42.596;23.044;2024-02-21T01:34:16;93502.97;;;6.98;93.53
15568;BME280;7885;42.596;23.044;2024-02-21T01:36:43;93498.75;;;7.00;93.70
15568;BME280;7885;42.596;23.044;2024-02-21T01:39:09;93494.50;;;6.99;93.43
15568;BME280;7885;42.596;23.044;2024-02-21T01:41:36;93420.41;;;6.46;93.59
15568;BME280;7885;42.596;23.044;2024-02-21T01:44:03;93486.88;;;6.86;93.67
15568;BME280;7885;42.596;23.044;2024-02-21T01:46:30;93495.97;;;6.97;93.96
15568;BME280;7885;42.596;23.044;2024-02-21T01:48:57;93469.34;;;6.80;93.51
15568;BME280;7885;42.596;23.044;2024-02-21T01:54:48;93455.84;;;6.60;93.43
15568;BME280;7885;42.596;23.044;2024-02-21T01:57:14;93492.31;;;6.86;93.01
15568;BME280;7885;42.596;23.044;2024-02-21T01:59:42;93472.28;;;6.71;93.28
15568;BME280;7885;42.596;23.044;2024-02-21T02:02:09;93481.59;;;6.74;93.30
15568;BME280;7885;42.596;23.044;2024-02-21T02:04:37;93491.56;;;6.70;93.33
15568;BME280;7885;42.596;23.044;2024-02-21T02:07:06;93478.19;;;6.57;93.48
15568;BME280;7885;42.596;23.044;2024-02-21T02:09:33;93491.56;;;6.70;93.64
15568;BME280;7885;42.596;23.044;2024-02-21T02:12:02;93471.38;;;6.64;93.41
15568;BME280;7885;42.596;23.044;2024-02-21T02:14:29;93473.88;;;6.72;93.60
15568;BME280;7885;42.596;23.044;2024-02-21T02:16:55;93473.22;;;6.79;92.99
15568;BME280;7885;42.596;23.044;2024-02-21T02:19:22;93479.38;;;6.79;93.12
15568;BME280;7885;42.596;23.044;2024-02-21T02:21:50;93461.47;;;6.71;93.33
15568;BME280;7885;42.596;23.044;2024-02-21T02:24:24;93471.06;;;6.88;92.92
15568;BME280;7885;42.596;23.044;2024-02-21T02:26:51;93469.22;;;6.92;92.00
15568;BME280;7885;42.596;23.044;2024-02-21T02:29:17;93476.06;;;6.86;92.23
15568;BME280;7885;42.596;23.044;2024-02-21T02:31:44;93460.13;;;6.81;92.42
15568;BME280;7885;42.596;23.044;2024-02-21T02:34:11;93461.75;;;6.85;92.46
15568;BME280;7885;42.596;23.044;2024-02-21T02:36:38;93464.22;;;6.94;92.47
15568;BME280;7885;42.596;23.044;2024-02-21T02:39:04;93419.72;;;6.69;92.65
15568;BME280;7885;42.596;23.044;2024-02-21T02:41:36;93451.06;;;6.92;91.92
15568;BME280;7885;42.596;23.044;2024-02-21T02:44:02;93428.06;;;6.83;91.33
15568;BME280;7885;42.596;23.044;2024-02-21T02:46:29;93438.69;;;6.91;91.81
15568;BME280;7885;42.596;23.044;2024-02-21T02:48:56;93463.22;;;7.02;92.29
15568;BME280;7885;42.596;23.044;2024-02-21T02:51:23;93462.78;;;7.00;92.44
15568;BME280;7885;42.596;23.044;2024-02-21T02:53:49;93467.06;;;7.01;92.37
15568;BME280;7885;42.596;23.044;2024-02-21T02:56:16;93469.78;;;7.01;92.43
15568;BME280;7885;42.596;23.044;2024-02-21T02:58:44;93468.25;;;7.03;92.26
15568;BME280;7885;42.596;23.044;2024-02-21T03:01:11;93471.03;;;7.07;92.18
15568;BME280;7885;42.596;23.044;2024-02-21T03:03:39;93456.16;;;6.97;92.50
15568;BME280;7885;42.596;23.044;2024-02-21T03:06:05;93472.53;;;7.04;92.36
15568;BME280;7885;42.596;23.044;2024-02-21T03:08:32;93473.75;;;7.07;92.64
15568;BME280;7885;42.596;23.044;2024-02-21T03:10:59;93451.84;;;6.93;92.37
15568;BME280;7885;42.596;23.044;2024-02-21T03:13:26;93465.88;;;6.98;92.41
15568;BME280;7885;42.596;23.044;2024-02-21T03:15:54;93489.91;;;7.03;92.35
15568;BME280;7885;42.596;23.044;2024-02-21T03:18:21;93480.91;;;6.96;93.75
15568;BME280;7885;42.596;23.044;2024-02-21T03:20:48;93373.09;;;6.18;93.11
15568;BME280;7885;42.596;23.044;2024-02-21T03:23:14;93465.81;;;6.76;93.91
15568;BME280;7885;42.596;23.044;2024-02-21T03:25:41;93409.31;;;6.32;95.00
15568;BME280;7885;42.596;23.044;2024-02-21T03:28:08;93473.81;;;6.69;95.63
15568;BME280;7885;42.596;23.044;2024-02-21T03:30:35;93490.28;;;6.83;95.49
15568;BME280;7885;42.596;23.044;2024-02-21T03:33:03;93490.00;;;6.88;95.06
15568;BME280;7885;42.596;23.044;2024-02-21T03:35:30;93491.22;;;6.90;94.65
15568;BME280;7885;42.596;23.044;2024-02-21T03:37:57;93489.66;;;6.89;95.12
15568;BME280;7885;42.596;23.044;2024-02-21T03:40:24;93482.69;;;6.88;94.72
15568;BME280;7885;42.596;23.044;2024-02-21T03:42:50;93492.84;;;6.95;94.32
15568;BME280;7885;42.596;23.044;2024-02-21T03:45:17;93458.13;;;6.58;95.03
15568;BME280;7885;42.596;23.044;2024-02-21T03:47:44;93498.13;;;6.88;95.48
15568;BME280;7885;42.596;23.044;2024-02-21T03:50:12;93457.44;;;6.62;95.50
15568;BME280;7885;42.596;23.044;2024-02-21T03:52:39;93492.72;;;6.88;95.43
15568;BME280;7885;42.596;23.044;2024-02-21T03:55:07;93385.41;;;6.15;95.12
15568;BME280;7885;42.596;23.044;2024-02-21T03:57:34;93432.34;;;6.45;95.51
15568;BME280;7885;42.596;23.044;2024-02-21T04:00:00;93486.44;;;6.84;95.63
15568;BME280;7885;42.596;23.044;2024-02-21T04:02:28;93502.81;;;6.91;95.26
15568;BME280;7885;42.596;23.044;2024-02-21T04:04:55;93498.97;;;6.92;95.31
15568;BME280;7885;42.596;23.044;2024-02-21T04:07:23;93505.19;;;6.92;95.13
15568;BME280;7885;42.596;23.044;2024-02-21T04:09:50;93498.97;;;6.92;95.52
15568;BME280;7885;42.596;23.044;2024-02-21T04:12:17;93501.69;;;6.92;95.34
15568;BME280;7885;42.596;23.044;2024-02-21T04:14:43;93491.94;;;6.87;95.45
15568;BME280;7885;42.596;23.044;2024-02-21T04:17:10;93504.09;;;6.97;95.09
15568;BME280;7885;42.596;23.044;2024-02-21T04:19:37;93504.81;;;6.94;95.22
15568;BME280;7885;42.596;23.044;2024-02-21T04:22:03;93505.97;;;6.93;94.93
15568;BME280;7885;42.596;23.044;2024-02-21T04:24:32;93415.78;;;6.28;94.44
15568;BME280;7885;42.596;23.044;2024-02-21T04:26:58;93479.22;;;6.69;94.85
15568;BME280;7885;42.596;23.044;2024-02-21T04:29:25;93501.09;;;6.83;95.13
15568;BME280;7885;42.596;23.044;2024-02-21T04:31:53;93499.13;;;6.80;95.11
15568;BME280;7885;42.596;23.044;2024-02-21T04:34:20;93506.66;;;6.71;94.97
15568;BME280;7885;42.596;23.044;2024-02-21T04:36:46;93503.66;;;6.56;95.33
15568;BME280;7885;42.596;23.044;2024-02-21T04:39:13;93499.53;;;6.43;95.56
15568;BME280;7885;42.596;23.044;2024-02-21T04:41:41;93503.81;;;6.44;96.05
15568;BME280;7885;42.596;23.044;2024-02-21T04:44:08;93504.06;;;6.39;96.72
15568;BME280;7885;42.596;23.044;2024-02-21T04:46:35;93481.00;;;6.26;96.83
15568;BME280;7885;42.596;23.044;2024-02-21T04:49:01;93502.50;;;6.38;96.77
15568;BME280;7885;42.596;23.044;2024-02-21T04:51:28;93486.84;;;6.28;94.92
15568;BME280;7885;42.596;23.044;2024-02-21T04:53:55;93505.19;;;6.38;95.00
15568;BME280;7885;42.596;23.044;2024-02-21T04:56:21;93507.19;;;6.41;96.12
15568;BME280;7885;42.596;23.044;2024-02-21T04:58:50;93507.19;;;6.41;94.52
15568;BME280;7885;42.596;23.044;2024-02-21T05:01:17;93474.16;;;6.13;93.85
15568;BME280;7885;42.596;23.044;2024-02-21T05:03:43;93488.72;;;6.08;93.92
15568;BME280;7885;42.596;23.044;2024-02-21T05:06:10;93503.56;;;6.34;95.62
15568;BME280;7885;42.596;23.044;2024-02-21T05:19:09;93497.34;;;5.83;95.88
15568;BME280;7885;42.596;23.044;2024-02-21T05:21:36;93472.19;;;5.63;96.30
15568;BME280;7885;42.596;23.044;2024-02-21T05:24:03;93482.38;;;5.70;96.38
15568;BME280;7885;42.596;23.044;2024-02-21T05:26:30;93487.06;;;5.73;96.18
15568;BME280;7885;42.596;23.044;2024-02-21T05:28:57;93477.69;;;5.67;95.80
15568;BME280;7885;42.596;23.044;2024-02-21T05:31:24;93472.09;;;5.59;95.68
15568;BME280;7885;42.596;23.044;2024-02-21T05:33:51;93502.00;;;5.82;96.38
15568;BME280;7885;42.596;23.044;2024-02-21T05:36:19;93503.81;;;5.94;96.41
15568;BME280;7885;42.596;23.044;2024-02-21T05:38:46;93495.22;;;5.88;95.42
15568;BME280;7885;42.596;23.044;2024-02-21T05:41:13;93418.38;;;5.39;94.77
15568;BME280;7885;42.596;23.044;2024-02-21T05:43:40;93368.63;;;5.05;94.81
15568;BME280;7885;42.596;23.044;2024-02-21T05:46:07;93516.94;;;6.11;95.15
15568;BME280;7885;42.596;23.044;2024-02-21T05:48:33;93476.63;;;5.87;94.63
15568;BME280;7885;42.596;23.044;2024-02-21T05:51:01;93529.66;;;6.26;93.73
15568;BME280;7885;42.596;23.044;2024-02-21T05:53:29;93527.91;;;6.34;93.04
15568;BME280;7885;42.596;23.044;2024-02-21T05:55:56;93529.44;;;6.35;93.06
15568;BME280;7885;42.596;23.044;2024-02-21T05:58:23;93520.06;;;6.29;93.69
15568;BME280;7885;42.596;23.044;2024-02-21T06:00:49;93528.22;;;6.48;93.71
15568;BME280;7885;42.596;23.044;2024-02-21T06:06:40;93539.25;;;6.58;93.47
15568;BME280;7885;42.596;23.044;2024-02-21T06:09:08;93483.97;;;6.21;92.94
15568;BME280;7885;42.596;23.044;2024-02-21T06:11:35;93556.25;;;6.59;93.39
15568;BME280;7885;42.596;23.044;2024-02-21T06:14:03;93550.06;;;6.58;93.52
15568;BME280;7885;42.596;23.044;2024-02-21T06:16:29;93507.34;;;6.29;94.24
15568;BME280;7885;42.596;23.044;2024-02-21T06:18:56;93552.34;;;6.56;94.16
15568;BME280;7885;42.596;23.044;2024-02-21T06:24:46;93560.38;;;6.53;93.98
15568;BME280;7885;42.596;23.044;2024-02-21T06:27:12;93553.47;;;6.55;94.27
15568;BME280;7885;42.596;23.044;2024-02-21T06:29:40;93558.31;;;6.46;94.87
15568;BME280;7885;42.596;23.044;2024-02-21T06:32:07;93566.56;;;6.53;94.99
15568;BME280;7885;42.596;23.044;2024-02-21T06:34:33;93554.88;;;6.49;95.05
15568;BME280;7885;42.596;23.044;2024-02-21T06:37:00;93547.56;;;6.50;95.50
15568;BME280;7885;42.596;23.044;2024-02-21T06:39:27;93570.44;;;6.72;95.36
15568;BME280;7885;42.596;23.044;2024-02-21T06:41:56;93561.03;;;6.66;95.48
15568;BME280;7885;42.596;23.044;2024-02-21T06:44:22;93571.31;;;6.76;95.08
15568;BME280;7885;42.596;23.044;2024-02-21T06:46:49;93577.72;;;6.87;95.00
15568;BME280;7885;42.596;23.044;2024-02-21T06:49:16;93578.56;;;6.91;94.57
15568;BME280;7885;42.596;23.044;2024-02-21T06:51:43;93507.81;;;6.35;94.72
15568;BME280;7885;42.596;23.044;2024-02-21T06:54:10;93580.72;;;6.82;96.07
15568;BME280;7885;42.596;23.044;2024-02-21T06:56:37;93575.88;;;6.72;96.23
15568;BME280;7885;42.596;23.044;2024-02-21T06:59:05;93485.28;;;6.27;96.53
15568;BME280;7885;42.596;23.044;2024-02-21T07:01:32;93576.50;;;7.03;96.59
15568;BME280;7885;42.596;23.044;2024-02-21T07:03:59;93463.09;;;6.37;96.17
15568;BME280;7885;42.596;23.044;2024-02-21T07:06:26;93584.84;;;7.33;95.46
15568;BME280;7885;42.596;23.044;2024-02-21T07:08:52;93577.28;;;7.42;94.61
15568;BME280;7885;42.596;23.044;2024-02-21T07:11:19;93539.09;;;7.28;94.12
15568;BME280;7885;42.596;23.044;2024-02-21T07:13:46;93572.88;;;7.53;93.68
15568;BME280;7885;42.596;23.044;2024-02-21T07:16:14;93537.13;;;7.44;92.97
15568;BME280;7885;42.596;23.044;2024-02-21T07:18:40;93576.75;;;7.75;92.83
15568;BME280;7885;42.596;23.044;2024-02-21T07:21:07;93599.56;;;7.97;92.09
15568;BME280;7885;42.596;23.044;2024-02-21T07:23:34;93597.41;;;8.06;91.46
15568;BME280;7885;42.596;23.044;2024-02-21T07:26:01;93578.19;;;7.92;91.02
15568;BME280;7885;42.596;23.044;2024-02-21T07:28:28;93556.28;;;7.78;91.20
15568;BME280;7885;42.596;23.044;2024-02-21T07:30:55;93597.88;;;8.11;90.87
15568;BME280;7885;42.596;23.044;2024-02-21T07:33:23;93598.72;;;8.16;90.95
15568;BME280;7885;42.596;23.044;2024-02-21T07:35:49;93561.50;;;7.90;90.33
15568;BME280;7885;42.596;23.044;2024-02-21T07:38:16;93598.00;;;8.19;89.50
15568;BME280;7885;42.596;23.044;2024-02-21T07:40:44;93552.09;;;7.84;89.43
15568;BME280;7885;42.596;23.044;2024-02-21T07:46:32;93601.91;;;8.21;89.25
15568;BME280;7885;42.596;23.044;2024-02-21T07:49:01;93602.75;;;8.25;88.96
15568;BME280;7885;42.596;23.044;2024-02-21T07:51:28;93603.84;;;8.21;89.24
15568;BME280;7885;42.596;23.044;2024-02-21T07:53:55;93605.91;;;8.27;90.26
15568;BME280;7885;42.596;23.044;2024-02-21T07:56:22;93599.16;;;8.40;89.83
15568;BME280;7885;42.596;23.044;2024-02-21T07:58:48;93604.81;;;8.54;89.37
15568;BME280;7885;42.596;23.044;2024-02-21T08:01:18;93610.25;;;8.54;87.31
15568;BME280;7885;42.596;23.044;2024-02-21T08:04:12;93601.88;;;8.67;85.86
15568;BME280;7885;42.596;23.044;2024-02-21T08:06:39;93596.63;;;8.77;86.06
15568;BME280;7885;42.596;23.044;2024-02-21T08:09:06;93600.94;;;8.82;85.53
15568;BME280;7885;42.596;23.044;2024-02-21T08:11:33;93593.41;;;8.98;84.39
15568;BME280;7885;42.596;23.044;2024-02-21T08:13:59;93590.34;;;8.99;84.42
15568;BME280;7885;42.596;23.044;2024-02-21T08:16:26;93597.00;;;9.05;83.98
15568;BME280;7885;42.596;23.044;2024-02-21T08:18:53;93584.06;;;9.25;83.65
15568;BME280;7885;42.596;23.044;2024-02-21T08:21:21;93591.50;;;9.61;82.75
15568;BME280;7885;42.596;23.044;2024-02-21T08:23:48;93588.75;;;9.58;80.10
15568;BME280;7885;42.596;23.044;2024-02-21T08:26:17;93597.09;;;9.79;77.32
15568;BME280;7885;42.596;23.044;2024-02-21T08:28:43;93574.56;;;9.75;76.28
15568;BME280;7885;42.596;23.044;2024-02-21T08:31:10;93552.44;;;9.77;76.35
15568;BME280;7885;42.596;23.044;2024-02-21T08:33:37;93588.28;;;10.26;74.89
15568;BME280;7885;42.596;23.044;2024-02-21T08:36:04;93593.31;;;10.72;72.65
15568;BME280;7885;42.596;23.044;2024-02-21T08:38:32;93604.97;;;10.76;70.89
15568;BME280;7885;42.596;23.044;2024-02-21T08:40:59;93605.22;;;11.14;71.29
15568;BME280;7885;42.596;23.044;2024-02-21T08:43:26;93574.56;;;11.28;70.72
15568;BME280;7885;42.596;23.044;2024-02-21T08:45:53;93553.16;;;11.30;67.02
15568;BME280;7885;42.596;23.044;2024-02-21T08:48:19;93609.03;;;11.72;66.50
15568;BME280;7885;42.596;23.044;2024-02-21T08:50:46;93603.25;;;11.91;65.16
15568;BME280;7885;42.596;23.044;2024-02-21T08:53:13;93605.63;;;12.17;63.85
15568;BME280;7885;42.596;23.044;2024-02-21T08:55:42;93609.97;;;12.71;61.57
15568;BME280;7885;42.596;23.044;2024-02-21T08:58:09;93615.03;;;13.26;57.81
15568;BME280;7885;42.596;23.044;2024-02-21T09:00:36;93607.47;;;13.69;56.27
15568;BME280;7885;42.596;23.044;2024-02-21T09:03:03;93613.47;;;14.18;54.90
15568;BME280;7885;42.596;23.044;2024-02-21T09:05:30;93601.50;;;13.95;54.27
15568;BME280;7885;42.596;23.044;2024-02-21T09:08:12;93594.56;;;13.65;54.41
15568;BME280;7885;42.596;23.044;2024-02-21T09:10:39;93600.69;;;13.98;55.04
15568;BME280;7885;42.596;23.044;2024-02-21T09:13:08;93598.44;;;14.51;53.66
15568;BME280;7885;42.596;23.044;2024-02-21T09:15:34;93545.00;;;14.26;54.06
15568;BME280;7885;42.596;23.044;2024-02-21T09:18:02;93524.28;;;14.73;53.76
15568;BME280;7885;42.596;23.044;2024-02-21T09:20:28;93588.13;;;15.89;49.50
15568;BME280;7885;42.596;23.044;2024-02-21T09:26:21;93580.47;;;16.84;45.74
15568;BME280;7885;42.596;23.044;2024-02-21T09:28:49;93580.41;;;17.10;45.27
15568;BME280;7885;42.596;23.044;2024-02-21T09:31:16;93550.94;;;17.11;44.72
15568;BME280;7885;42.596;23.044;2024-02-21T09:33:43;93588.66;;;17.10;45.04
15568;BME280;7885;42.596;23.044;2024-02-21T09:36:10;93581.66;;;16.59;44.45
15568;BME280;7885;42.596;23.044;2024-02-21T09:38:39;93567.00;;;15.48;46.90
15568;BME280;7885;42.596;23.044;2024-02-21T09:41:15;93570.25;;;14.99;49.06
15568;BME280;7885;42.596;23.044;2024-02-21T09:43:43;93536.41;;;14.27;50.58
15568;BME280;7885;42.596;23.044;2024-02-21T09:46:16;93505.13;;;13.62;52.22
15568;BME280;7885;42.596;23.044;2024-02-21T09:48:54;93578.97;;;13.59;54.48
15568;BME280;7885;42.596;23.044;2024-02-21T09:51:27;93593.81;;;13.69;55.50
15568;BME280;7885;42.596;23.044;2024-02-21T09:53:56;93589.91;;;13.62;54.49
15568;BME280;7885;42.596;23.044;2024-02-21T09:56:24;93575.19;;;13.28;54.92
15568;BME280;7885;42.596;23.044;2024-02-21T09:58:50;93548.66;;;13.18;55.57
15568;BME280;7885;42.596;23.044;2024-02-21T10:01:18;93560.28;;;13.43;55.37
15568;BME280;7885;42.596;23.044;2024-02-21T10:03:46;93581.69;;;13.66;55.60
15568;BME280;7885;42.596;23.044;2024-02-21T10:09:34;93584.22;;;14.05;55.16
15568;BME280;7885;42.596;23.044;2024-02-21T10:12:08;93571.06;;;14.51;53.28
15568;BME280;7885;42.596;23.044;2024-02-21T10:14:35;93567.94;;;14.94;49.72
15568;BME280;7885;42.596;23.044;2024-02-21T10:17:04;93528.31;;;15.39;47.30
15568;BME280;7885;42.596;23.044;2024-02-21T10:19:34;93557.41;;;16.78;45.48
15568;BME280;7885;42.596;23.044;2024-02-21T10:22:02;93561.72;;;19.08;39.40
15568;BME280;7885;42.596;23.044;2024-02-21T10:24:30;93536.75;;;20.14;36.19
15568;BME280;7885;42.596;23.044;2024-02-21T10:27:04;93514.41;;;21.22;32.78
15568;BME280;7885;42.596;23.044;2024-02-21T10:29:34;93502.19;;;21.32;30.99
15568;BME280;7885;42.596;23.044;2024-02-21T10:32:07;93533.81;;;22.00;30.49
15568;BME280;7885;42.596;23.044;2024-02-21T10:34:34;93539.22;;;22.25;30.34
15568;BME280;7885;42.596;23.044;2024-02-21T10:37:02;93513.44;;;22.15;29.76
15568;BME280;7885;42.596;23.044;2024-02-21T10:39:29;93506.31;;;21.49;30.47
15568;BME280;7885;42.596;23.044;2024-02-21T10:41:59;93470.16;;;19.83;32.69
15568;BME280;7885;42.596;23.044;2024-02-21T10:44:28;93450.16;;;18.64;35.10
15568;BME280;7885;42.596;23.044;2024-02-21T10:46:56;93468.13;;;17.84;37.07
15568;BME280;7885;42.596;23.044;2024-02-21T10:49:25;93515.91;;;17.35;38.78
15568;BME280;7885;42.596;23.044;2024-02-21T10:51:55;93506.38;;;16.77;40.27
15568;BME280;7885;42.596;23.044;2024-02-21T10:54:37;93469.88;;;16.03;41.71
15568;BME280;7885;42.596;23.044;2024-02-21T10:57:06;93499.63;;;15.78;42.93
15568;BME280;7885;42.596;23.044;2024-02-21T10:59:37;93405.28;;;14.74;44.95
15568;BME280;7885;42.596;23.044;2024-02-21T11:02:05;93504.75;;;15.08;45.51
15568;BME280;7885;42.596;23.044;2024-02-21T11:04:33;93483.53;;;14.37;44.41
15568;BME280;7885;42.596;23.044;2024-02-21T11:07:03;93477.84;;;14.07;45.35
15568;BME280;7885;42.596;23.044;2024-02-21T11:09:30;93490.53;;;13.83;47.43
15568;BME280;7885;42.596;23.044;2024-02-21T11:11:58;93488.97;;;13.86;47.24
15568;BME280;7885;42.596;23.044;2024-02-21T11:18:22;93487.06;;;18.18;39.52
15568;BME280;7885;42.596;23.044;2024-02-21T11:20:51;93486.72;;;19.71;34.86
15568;BME280;7885;42.596;23.044;2024-02-21T11:23:24;93482.50;;;19.37;33.46
15568;BME280;7885;42.596;23.044;2024-02-21T11:25:51;93467.53;;;18.45;34.66
15568;BME280;7885;42.596;23.044;2024-02-21T11:28:34;93468.09;;;17.68;35.95
15568;BME280;7885;42.596;23.044;2024-02-21T11:31:07;93473.09;;;17.14;38.06
15568;BME280;7885;42.596;23.044;2024-02-21T11:33:34;93465.50;;;16.55;38.41
15568;BME280;7885;42.596;23.044;2024-02-21T11:36:02;93456.09;;;16.06;40.63
15568;BME280;7885;42.596;23.044;2024-02-21T11:38:30;93406.25;;;15.24;40.29
15568;BME280;7885;42.596;23.044;2024-02-21T11:40:56;93444.91;;;15.03;42.81
15568;BME280;7885;42.596;23.044;2024-02-21T11:47:00;93420.78;;;14.09;45.43
15568;BME280;7885;42.596;23.044;2024-02-21T11:49:29;93445.75;;;14.11;46.59
15568;BME280;7885;42.596;23.044;2024-02-21T11:52:01;93453.69;;;13.98;47.29
15568;BME280;7885;42.596;23.044;2024-02-21T11:54:29;93449.91;;;13.82;47.96
15568;BME280;7885;42.596;23.044;2024-02-21T11:56:57;93450.88;;;13.54;49.05
15568;BME280;7885;42.596;23.044;2024-02-21T11:59:24;93449.84;;;13.30;50.75
15568;BME280;7885;42.596;23.044;2024-02-21T12:01:52;93450.28;;;13.11;51.54
15568;BME280;7885;42.596;23.044;2024-02-21T12:04:20;93406.69;;;12.76;52.47
15568;BME280;7885;42.596;23.044;2024-02-21T12:06:49;93453.88;;;12.87;53.25
15568;BME280;7885;42.596;23.044;2024-02-21T12:09:17;93380.31;;;12.34;54.19
15568;BME280;7885;42.596;23.044;2024-02-21T12:11:44;93446.53;;;12.55;55.18
15568;BME280;7885;42.596;23.044;2024-02-21T12:14:16;93445.75;;;12.58;55.39
15568;BME280;7885;42.596;23.044;2024-02-21T12:16:44;93448.09;;;12.56;55.89
15568;BME280;7885;42.596;23.044;2024-02-21T12:19:13;93410.75;;;12.14;55.71
15568;BME280;7885;42.596;23.044;2024-02-21T12:21:42;93390.88;;;12.07;56.10
15568;BME280;7885;42.596;23.044;2024-02-21T12:24:14;93406.84;;;12.19;56.40
15568;BME280;7885;42.596;23.044;2024-02-21T12:26:42;93353.88;;;11.85;55.69
15568;BME280;7885;42.596;23.044;2024-02-21T12:29:09;93405.28;;;12.22;55.95
15568;BME280;7885;42.596;23.044;2024-02-21T12:31:36;93429.44;;;12.23;57.52
15568;BME280;7885;42.596;23.044;2024-02-21T12:34:03;93439.59;;;12.26;57.99
15568;BME280;7885;42.596;23.044;2024-02-21T12:36:30;93432.19;;;12.20;58.22
15568;BME280;7885;42.596;23.044;2024-02-21T12:38:57;93437.66;;;12.16;58.23
15568;BME280;7885;42.596;23.044;2024-02-21T12:41:23;93385.84;;;11.81;57.77
15568;BME280;7885;42.596;23.044;2024-02-21T12:43:53;93427.13;;;12.11;58.14
15568;BME280;7885;42.596;23.044;2024-02-21T12:46:21;93422.06;;;12.06;58.59
15568;BME280;7885;42.596;23.044;2024-02-21T12:52:16;93405.28;;;12.04;59.01
15568;BME280;7885;42.596;23.044;2024-02-21T12:54:43;93423.22;;;12.12;59.66
15568;BME280;7885;42.596;23.044;2024-02-21T12:57:10;93413.88;;;12.13;60.36
15568;BME280;7885;42.596;23.044;2024-02-21T12:59:38;93417.34;;;12.24;59.80
15568;BME280;7885;42.596;23.044;2024-02-21T13:02:05;93418.53;;;12.16;58.43
15568;BME280;7885;42.596;23.044;2024-02-21T13:04:33;93366.38;;;11.82;57.06
15568;BME280;7885;42.596;23.044;2024-02-21T13:07:00;93412.69;;;12.07;57.49
15568;BME280;7885;42.596;23.044;2024-02-21T13:09:27;93378.44;;;11.71;58.91
15568;BME280;7885;42.596;23.044;2024-02-21T13:18:38;93352.31;;;11.55;59.25
15568;BME280;7885;42.596;23.044;2024-02-21T13:21:08;93377.66;;;11.81;59.62
15568;BME280;7885;42.596;23.044;2024-02-21T13:23:37;93406.06;;;12.04;60.22
15568;BME280;7885;42.596;23.044;2024-02-21T13:26:04;93399.81;;;12.11;60.71
15568;BME280;7885;42.596;23.044;2024-02-21T13:28:31;93398.28;;;12.10;60.54
15568;BME280;7885;42.596;23.044;2024-02-21T13:30:58;93395.94;;;11.91;59.87
15568;BME280;7885;42.596;23.044;2024-02-21T13:33:24;93387.41;;;11.82;59.76
15568;BME280;7885;42.596;23.044;2024-02-21T13:35:52;93339.84;;;11.69;58.55
15568;BME280;7885;42.596;23.044;2024-02-21T13:38:19;93392.84;;;11.99;58.04
15568;BME280;7885;42.596;23.044;2024-02-21T13:40:46;93303.66;;;11.50;57.28
15568;BME280;7885;42.596;23.044;2024-02-21T13:43:13;93377.22;;;12.00;56.17
15568;BME280;7885;42.596;23.044;2024-02-21T13:45:39;93369.84;;;11.83;55.36
15568;BME280;7885;42.596;23.044;2024-02-21T13:48:08;93329.75;;;11.51;56.23
15568;BME280;7885;42.596;23.044;2024-02-21T13:50:37;93372.56;;;11.93;56.36
15568;BME280;7885;42.596;23.044;2024-02-21T13:53:10;93364.78;;;11.85;55.90
15568;BME280;7885;42.596;23.044;2024-02-21T13:55:37;93385.44;;;11.93;55.49
15568;BME280;7885;42.596;23.044;2024-02-21T13:58:06;93365.56;;;11.68;55.18
15568;BME280;7885;42.596;23.044;2024-02-21T14:00:34;93385.44;;;11.86;54.43
15568;BME280;7885;42.596;23.044;2024-02-21T14:03:01;93331.28;;;11.45;54.80
15568;BME280;7885;42.596;23.044;2024-02-21T14:05:28;93379.56;;;11.70;55.51
15568;BME280;7885;42.596;23.044;2024-02-21T14:07:55;93388.94;;;11.69;55.30